sensor_id;sensor_type;location;lat;lon;timestamp;P1;durP1;ratioP1;P2;durP2;ratioP2
34737;SDS011;39910;47.154;27.614;2024-03-07T00:00:58;10.48;;;9.98;;
34737;SDS011;39910;47.154;27.614;2024-03-07T00:03:25;10.50;;;10.00;;
34737;SDS011;39910;47.154;27.614;2024-03-07T00:05:50;10.07;;;9.65;;
34737;SDS011;39910;47.154;27.614;2024-03-07T00:08:16;10.55;;;10.05;;
34737;SDS011;39910;47.154;27.614;2024-03-07T00:10:41;10.65;;;10.15;;
34737;SDS011;39910;47.154;27.614;2024-03-07T00:13:09;10.40;;;9.90;;
34737;SDS011;39910;47.154;27.614;2024-03-07T00:15:34;10.50;;;10.00;;
34737;SDS011;39910;47.154;27.614;2024-03-07T00:18:00;15.23;;;14.32;;
34737;SDS011;39910;47.154;27.614;2024-03-07T00:20:26;16.05;;;15.05;;
34737;SDS011;39910;47.154;27.614;2024-03-07T00:22:51;15.57;;;14.57;;
34737;SDS011;39910;47.154;27.614;2024-03-07T00:25:16;15.20;;;14.30;;
34737;SDS011;39910;47.154;27.614;2024-03-07T00:27:44;10.27;;;9.80;;
34737;SDS011;39910;47.154;27.614;2024-03-07T00:30:10;9.98;;;9.55;;
34737;SDS011;39910;47.154;27.614;2024-03-07T00:32:38;10.43;;;9.93;;
34737;SDS011;39910;47.154;27.614;2024-03-07T00:35:05;10.35;;;9.85;;
34737;SDS011;39910;47.154;27.614;2024-03-07T00:37:30;10.27;;;9.77;;
34737;SDS011;39910;47.154;27.614;2024-03-07T00:39:56;10.00;;;9.60;;
34737;SDS011;39910;47.154;27.614;2024-03-07T00:42:21;10.40;;;9.90;;
34737;SDS011;39910;47.154;27.614;2024-03-07T00:44:47;10.27;;;9.77;;
34737;SDS011;39910;47.154;27.614;2024-03-07T00:47:14;10.40;;;9.90;;
34737;SDS011;39910;47.154;27.614;2024-03-07T00:49:39;10.52;;;10.02;;
34737;SDS011;39910;47.154;27.614;2024-03-07T00:52:05;10.30;;;9.80;;
34737;SDS011;39910;47.154;27.614;2024-03-07T00:54:30;10.60;;;10.10;;
34737;SDS011;39910;47.154;27.614;2024-03-07T00:56:56;10.30;;;9.80;;
34737;SDS011;39910;47.154;27.614;2024-03-07T00:59:21;10.43;;;9.93;;
34737;SDS011;39910;47.154;27.614;2024-03-07T01:01:47;10.60;;;10.10;;
34737;SDS011;39910;47.154;27.614;2024-03-07T01:04:12;10.00;;;9.60;;
34737;SDS011;39910;47.154;27.614;2024-03-07T01:06:37;10.40;;;9.90;;
34737;SDS011;39910;47.154;27.614;2024-03-07T01:09:03;10.10;;;9.70;;
34737;SDS011;39910;47.154;27.614;2024-03-07T01:11:28;9.98;;;9.52;;
34737;SDS011;39910;47.154;27.614;2024-03-07T01:13:54;10.60;;;10.10;;
34737;SDS011;39910;47.154;27.614;2024-03-07T01:16:20;10.10;;;9.60;;
34737;SDS011;39910;47.154;27.614;2024-03-07T01:18:46;9.90;;;9.50;;
34737;SDS011;39910;47.154;27.614;2024-03-07T01:21:11;10.55;;;10.05;;
34737;SDS011;39910;47.154;27.614;2024-03-07T01:23:36;10.43;;;9.93;;
34737;SDS011;39910;47.154;27.614;2024-03-07T01:26:02;11.13;;;10.60;;
34737;SDS011;39910;47.154;27.614;2024-03-07T01:28:28;10.40;;;9.90;;
34737;SDS011;39910;47.154;27.614;2024-03-07T01:30:55;11.55;;;10.95;;
34737;SDS011;39910;47.154;27.614;2024-03-07T01:33:20;10.40;;;9.90;;
34737;SDS011;39910;47.154;27.614;2024-03-07T01:35:46;10.30;;;9.80;;
34737;SDS011;39910;47.154;27.614;2024-03-07T01:38:11;10.80;;;10.30;;
34737;SDS011;39910;47.154;27.614;2024-03-07T01:40:39;10.10;;;9.70;;
34737;SDS011;39910;47.154;27.614;2024-03-07T01:43:04;10.90;;;10.40;;
34737;SDS011;39910;47.154;27.614;2024-03-07T01:45:30;10.48;;;9.98;;
34737;SDS011;39910;47.154;27.614;2024-03-07T01:47:56;10.35;;;9.85;;
34737;SDS011;39910;47.154;27.614;2024-03-07T01:50:21;11.00;;;10.50;;
34737;SDS011;39910;47.154;27.614;2024-03-07T01:52:47;10.30;;;9.80;;
34737;SDS011;39910;47.154;27.614;2024-03-07T01:55:15;10.30;;;9.80;;
34737;SDS011;39910;47.154;27.614;2024-03-07T01:57:41;9.98;;;9.52;;
34737;SDS011;39910;47.154;27.614;2024-03-07T02:00:07;10.30;;;9.80;;
34737;SDS011;39910;47.154;27.614;2024-03-07T02:02:32;10.98;;;10.48;;
34737;SDS011;39910;47.154;27.614;2024-03-07T02:04:59;10.82;;;10.32;;
34737;SDS011;39910;47.154;27.614;2024-03-07T02:07:24;10.27;;;9.77;;
34737;SDS011;39910;47.154;27.614;2024-03-07T02:09:58;10.10;;;9.70;;
34737;SDS011;39910;47.154;27.614;2024-03-07T02:12:24;10.40;;;9.90;;
34737;SDS011;39910;47.154;27.614;2024-03-07T02:14:49;11.02;;;10.52;;
34737;SDS011;39910;47.154;27.614;2024-03-07T02:17:15;10.68;;;10.18;;
34737;SDS011;39910;47.154;27.614;2024-03-07T02:19:40;10.40;;;9.90;;
34737;SDS011;39910;47.154;27.614;2024-03-07T02:22:06;10.75;;;10.25;;
34737;SDS011;39910;47.154;27.614;2024-03-07T02:24:31;10.55;;;10.05;;
34737;SDS011;39910;47.154;27.614;2024-03-07T02:26:57;11.10;;;10.60;;
34737;SDS011;39910;47.154;27.614;2024-03-07T02:29:24;10.60;;;10.10;;
34737;SDS011;39910;47.154;27.614;2024-03-07T02:31:49;10.50;;;10.00;;
34737;SDS011;39910;47.154;27.614;2024-03-07T02:34:16;10.38;;;9.88;;
34737;SDS011;39910;47.154;27.614;2024-03-07T02:36:42;10.00;;;9.60;;
34737;SDS011;39910;47.154;27.614;2024-03-07T02:39:07;11.00;;;10.50;;
34737;SDS011;39910;47.154;27.614;2024-03-07T02:41:33;10.32;;;9.82;;
34737;SDS011;39910;47.154;27.614;2024-03-07T02:43:59;10.30;;;9.80;;
34737;SDS011;39910;47.154;27.614;2024-03-07T02:46:26;10.40;;;9.90;;
34737;SDS011;39910;47.154;27.614;2024-03-07T02:48:51;10.27;;;9.77;;
34737;SDS011;39910;47.154;27.614;2024-03-07T02:51:17;10.68;;;10.18;;
34737;SDS011;39910;47.154;27.614;2024-03-07T02:53:42;10.20;;;9.70;;
34737;SDS011;39910;47.154;27.614;2024-03-07T02:56:08;10.82;;;10.32;;
34737;SDS011;39910;47.154;27.614;2024-03-07T02:58:34;10.00;;;9.60;;
34737;SDS011;39910;47.154;27.614;2024-03-07T03:01:00;9.93;;;9.52;;
34737;SDS011;39910;47.154;27.614;2024-03-07T03:03:28;10.77;;;10.27;;
34737;SDS011;39910;47.154;27.614;2024-03-07T03:05:56;11.00;;;10.50;;
34737;SDS011;39910;47.154;27.614;2024-03-07T03:08:22;10.07;;;9.65;;
34737;SDS011;39910;47.154;27.614;2024-03-07T03:10:47;10.23;;;9.73;;
34737;SDS011;39910;47.154;27.614;2024-03-07T03:13:12;10.30;;;9.80;;
34737;SDS011;39910;47.154;27.614;2024-03-07T03:15:38;10.80;;;10.30;;
34737;SDS011;39910;47.154;27.614;2024-03-07T03:18:04;10.60;;;10.10;;
34737;SDS011;39910;47.154;27.614;2024-03-07T03:20:30;10.40;;;9.90;;
34737;SDS011;39910;47.154;27.614;2024-03-07T03:22:59;9.95;;;9.55;;
34737;SDS011;39910;47.154;27.614;2024-03-07T03:25:24;10.10;;;9.70;;
34737;SDS011;39910;47.154;27.614;2024-03-07T03:27:49;10.48;;;9.98;;
34737;SDS011;39910;47.154;27.614;2024-03-07T03:30:16;10.70;;;10.20;;
34737;SDS011;39910;47.154;27.614;2024-03-07T03:32:46;10.23;;;9.75;;
34737;SDS011;39910;47.154;27.614;2024-03-07T03:35:12;9.50;;;9.10;;
34737;SDS011;39910;47.154;27.614;2024-03-07T03:37:41;10.30;;;9.80;;
34737;SDS011;39910;47.154;27.614;2024-03-07T03:40:07;10.80;;;10.30;;
34737;SDS011;39910;47.154;27.614;2024-03-07T03:42:34;11.07;;;10.52;;
34737;SDS011;39910;47.154;27.614;2024-03-07T03:45:01;10.50;;;10.00;;
34737;SDS011;39910;47.154;27.614;2024-03-07T03:47:26;10.20;;;9.70;;
34737;SDS011;39910;47.154;27.614;2024-03-07T03:49:53;10.45;;;9.95;;
34737;SDS011;39910;47.154;27.614;2024-03-07T03:52:18;10.40;;;9.90;;
34737;SDS011;39910;47.154;27.614;2024-03-07T03:54:44;10.50;;;10.00;;
34737;SDS011;39910;47.154;27.614;2024-03-07T03:57:09;11.10;;;10.60;;
34737;SDS011;39910;47.154;27.614;2024-03-07T03:59:34;9.85;;;9.45;;
34737;SDS011;39910;47.154;27.614;2024-03-07T04:02:00;10.82;;;10.32;;
34737;SDS011;39910;47.154;27.614;2024-03-07T04:04:25;10.30;;;9.80;;
34737;SDS011;39910;47.154;27.614;2024-03-07T04:06:51;9.98;;;9.48;;
34737;SDS011;39910;47.154;27.614;2024-03-07T04:09:16;10.27;;;9.77;;
34737;SDS011;39910;47.154;27.614;2024-03-07T04:11:44;9.95;;;9.52;;
34737;SDS011;39910;47.154;27.614;2024-03-07T04:14:09;10.18;;;9.68;;
34737;SDS011;39910;47.154;27.614;2024-03-07T04:16:35;10.13;;;9.65;;
34737;SDS011;39910;47.154;27.614;2024-03-07T04:19:00;10.75;;;10.25;;
34737;SDS011;39910;47.154;27.614;2024-03-07T04:21:25;10.52;;;10.02;;
34737;SDS011;39910;47.154;27.614;2024-03-07T04:23:51;10.15;;;9.65;;
34737;SDS011;39910;47.154;27.614;2024-03-07T04:26:16;10.68;;;10.18;;
34737;SDS011;39910;47.154;27.614;2024-03-07T04:28:42;10.80;;;10.30;;
34737;SDS011;39910;47.154;27.614;2024-03-07T04:31:08;10.80;;;10.30;;
34737;SDS011;39910;47.154;27.614;2024-03-07T04:33:33;10.90;;;10.40;;
34737;SDS011;39910;47.154;27.614;2024-03-07T04:35:58;10.48;;;9.98;;
34737;SDS011;39910;47.154;27.614;2024-03-07T04:38:27;10.73;;;10.23;;
34737;SDS011;39910;47.154;27.614;2024-03-07T04:40:53;10.25;;;9.75;;
34737;SDS011;39910;47.154;27.614;2024-03-07T04:43:19;10.52;;;10.02;;
34737;SDS011;39910;47.154;27.614;2024-03-07T04:45:44;10.50;;;10.00;;
34737;SDS011;39910;47.154;27.614;2024-03-07T04:48:10;10.60;;;10.10;;
34737;SDS011;39910;47.154;27.614;2024-03-07T04:50:36;10.50;;;10.00;;
34737;SDS011;39910;47.154;27.614;2024-03-07T04:53:01;10.40;;;9.90;;
34737;SDS011;39910;47.154;27.614;2024-03-07T04:55:27;10.82;;;10.32;;
34737;SDS011;39910;47.154;27.614;2024-03-07T04:57:52;11.65;;;11.05;;
34737;SDS011;39910;47.154;27.614;2024-03-07T05:00:18;11.43;;;10.85;;
34737;SDS011;39910;47.154;27.614;2024-03-07T05:02:48;10.70;;;10.20;;
34737;SDS011;39910;47.154;27.614;2024-03-07T05:05:15;11.18;;;10.60;;
34737;SDS011;39910;47.154;27.614;2024-03-07T05:07:45;10.30;;;9.80;;
34737;SDS011;39910;47.154;27.614;2024-03-07T05:10:11;10.50;;;10.00;;
34737;SDS011;39910;47.154;27.614;2024-03-07T05:12:36;10.70;;;10.20;;
34737;SDS011;39910;47.154;27.614;2024-03-07T05:15:02;10.40;;;9.90;;
34737;SDS011;39910;47.154;27.614;2024-03-07T05:17:29;10.25;;;9.75;;
34737;SDS011;39910;47.154;27.614;2024-03-07T05:19:56;10.52;;;10.02;;
34737;SDS011;39910;47.154;27.614;2024-03-07T05:22:21;10.77;;;10.27;;
34737;SDS011;39910;47.154;27.614;2024-03-07T05:24:50;10.18;;;9.68;;
34737;SDS011;39910;47.154;27.614;2024-03-07T05:27:15;10.50;;;10.00;;
34737;SDS011;39910;47.154;27.614;2024-03-07T05:29:41;10.73;;;10.23;;
34737;SDS011;39910;47.154;27.614;2024-03-07T05:32:22;10.75;;;10.25;;
34737;SDS011;39910;47.154;27.614;2024-03-07T05:34:49;10.70;;;10.20;;
34737;SDS011;39910;47.154;27.614;2024-03-07T05:37:14;11.23;;;10.63;;
34737;SDS011;39910;47.154;27.614;2024-03-07T05:39:39;10.43;;;9.93;;
34737;SDS011;39910;47.154;27.614;2024-03-07T05:42:05;10.85;;;10.35;;
34737;SDS011;39910;47.154;27.614;2024-03-07T05:44:32;11.18;;;10.57;;
34737;SDS011;39910;47.154;27.614;2024-03-07T05:46:57;10.20;;;9.70;;
34737;SDS011;39910;47.154;27.614;2024-03-07T05:49:23;11.00;;;10.50;;
34737;SDS011;39910;47.154;27.614;2024-03-07T05:51:48;10.65;;;10.15;;
34737;SDS011;39910;47.154;27.614;2024-03-07T05:54:14;10.90;;;10.40;;
34737;SDS011;39910;47.154;27.614;2024-03-07T05:56:39;11.43;;;10.82;;
34737;SDS011;39910;47.154;27.614;2024-03-07T05:59:08;12.52;;;11.82;;
34737;SDS011;39910;47.154;27.614;2024-03-07T06:01:37;10.57;;;10.07;;
34737;SDS011;39910;47.154;27.614;2024-03-07T06:04:03;11.02;;;10.48;;
34737;SDS011;39910;47.154;27.614;2024-03-07T06:06:32;10.70;;;10.20;;
34737;SDS011;39910;47.154;27.614;2024-03-07T06:08:58;10.80;;;10.30;;
34737;SDS011;39910;47.154;27.614;2024-03-07T06:11:23;10.43;;;9.93;;
34737;SDS011;39910;47.154;27.614;2024-03-07T06:13:49;10.30;;;9.80;;
34737;SDS011;39910;47.154;27.614;2024-03-07T06:16:14;10.55;;;10.05;;
34737;SDS011;39910;47.154;27.614;2024-03-07T06:18:40;11.13;;;10.52;;
34737;SDS011;39910;47.154;27.614;2024-03-07T06:21:06;10.90;;;10.40;;
34737;SDS011;39910;47.154;27.614;2024-03-07T06:23:31;11.82;;;11.23;;
34737;SDS011;39910;47.154;27.614;2024-03-07T06:25:57;10.75;;;10.25;;
34737;SDS011;39910;47.154;27.614;2024-03-07T06:28:24;10.23;;;9.73;;
34737;SDS011;39910;47.154;27.614;2024-03-07T06:30:50;10.75;;;10.25;;
34737;SDS011;39910;47.154;27.614;2024-03-07T06:33:15;10.40;;;9.90;;
34737;SDS011;39910;47.154;27.614;2024-03-07T06:35:44;10.20;;;9.70;;
34737;SDS011;39910;47.154;27.614;2024-03-07T06:38:10;10.43;;;9.93;;
34737;SDS011;39910;47.154;27.614;2024-03-07T06:40:36;10.88;;;10.38;;
34737;SDS011;39910;47.154;27.614;2024-03-07T06:43:02;10.02;;;9.52;;
34737;SDS011;39910;47.154;27.614;2024-03-07T06:45:32;10.60;;;10.10;;
34737;SDS011;39910;47.154;27.614;2024-03-07T06:47:57;10.45;;;9.95;;
34737;SDS011;39910;47.154;27.614;2024-03-07T06:50:23;10.10;;;9.60;;
34737;SDS011;39910;47.154;27.614;2024-03-07T06:52:48;10.27;;;9.77;;
34737;SDS011;39910;47.154;27.614;2024-03-07T06:55:17;10.50;;;10.00;;
34737;SDS011;39910;47.154;27.614;2024-03-07T06:57:43;10.68;;;10.18;;
34737;SDS011;39910;47.154;27.614;2024-03-07T07:00:10;12.05;;;11.43;;
34737;SDS011;39910;47.154;27.614;2024-03-07T07:02:39;10.18;;;9.68;;
34737;SDS011;39910;47.154;27.614;2024-03-07T07:05:06;10.15;;;9.65;;
34737;SDS011;39910;47.154;27.614;2024-03-07T07:07:32;10.63;;;10.13;;
34737;SDS011;39910;47.154;27.614;2024-03-07T07:09:59;10.90;;;10.40;;
34737;SDS011;39910;47.154;27.614;2024-03-07T07:12:25;11.75;;;11.15;;
34737;SDS011;39910;47.154;27.614;2024-03-07T07:14:50;10.55;;;10.05;;
34737;SDS011;39910;47.154;27.614;2024-03-07T07:17:15;10.00;;;9.52;;
34737;SDS011;39910;47.154;27.614;2024-03-07T07:19:41;10.65;;;10.15;;
34737;SDS011;39910;47.154;27.614;2024-03-07T07:22:06;11.23;;;10.63;;
34737;SDS011;39910;47.154;27.614;2024-03-07T07:24:32;11.60;;;11.00;;
34737;SDS011;39910;47.154;27.614;2024-03-07T07:26:59;9.88;;;9.45;;
34737;SDS011;39910;47.154;27.614;2024-03-07T07:29:25;10.60;;;10.10;;
34737;SDS011;39910;47.154;27.614;2024-03-07T07:31:51;10.50;;;10.00;;
34737;SDS011;39910;47.154;27.614;2024-03-07T07:34:17;11.95;;;11.35;;
34737;SDS011;39910;47.154;27.614;2024-03-07T07:36:42;11.98;;;11.38;;
34737;SDS011;39910;47.154;27.614;2024-03-07T07:39:08;14.57;;;13.68;;
34737;SDS011;39910;47.154;27.614;2024-03-07T07:41:42;11.95;;;11.32;;
34737;SDS011;39910;47.154;27.614;2024-03-07T07:44:07;11.40;;;10.80;;
34737;SDS011;39910;47.154;27.614;2024-03-07T07:46:33;12.13;;;11.48;;
34737;SDS011;39910;47.154;27.614;2024-03-07T07:48:59;12.70;;;12.00;;
34737;SDS011;39910;47.154;27.614;2024-03-07T07:51:25;11.70;;;11.10;;
34737;SDS011;39910;47.154;27.614;2024-03-07T07:53:51;11.57;;;10.98;;
34737;SDS011;39910;47.154;27.614;2024-03-07T07:56:19;11.02;;;10.45;;
34737;SDS011;39910;47.154;27.614;2024-03-07T07:58:44;12.38;;;11.68;;
34737;SDS011;39910;47.154;27.614;2024-03-07T08:01:11;10.35;;;9.85;;
34737;SDS011;39910;47.154;27.614;2024-03-07T08:03:36;13.63;;;12.82;;
34737;SDS011;39910;47.154;27.614;2024-03-07T08:06:03;11.88;;;11.27;;
34737;SDS011;39910;47.154;27.614;2024-03-07T08:08:28;11.50;;;10.90;;
34737;SDS011;39910;47.154;27.614;2024-03-07T08:10:54;11.60;;;11.00;;
34737;SDS011;39910;47.154;27.614;2024-03-07T08:13:19;12.23;;;11.55;;
34737;SDS011;39910;47.154;27.614;2024-03-07T08:15:44;11.52;;;10.93;;
34737;SDS011;39910;47.154;27.614;2024-03-07T08:18:10;12.02;;;11.43;;
34737;SDS011;39910;47.154;27.614;2024-03-07T08:20:35;12.35;;;11.65;;
34737;SDS011;39910;47.154;27.614;2024-03-07T08:23:01;11.85;;;11.25;;
34737;SDS011;39910;47.154;27.614;2024-03-07T08:25:27;12.75;;;12.05;;
34737;SDS011;39910;47.154;27.614;2024-03-07T08:27:54;12.15;;;11.52;;
34737;SDS011;39910;47.154;27.614;2024-03-07T08:30:20;10.63;;;10.13;;
34737;SDS011;39910;47.154;27.614;2024-03-07T08:32:49;12.57;;;11.88;;
34737;SDS011;39910;47.154;27.614;2024-03-07T08:35:14;12.02;;;11.43;;
34737;SDS011;39910;47.154;27.614;2024-03-07T08:37:42;11.68;;;11.07;;
34737;SDS011;39910;47.154;27.614;2024-03-07T08:40:08;11.57;;;10.98;;
34737;SDS011;39910;47.154;27.614;2024-03-07T08:42:35;12.00;;;11.40;;
34737;SDS011;39910;47.154;27.614;2024-03-07T08:45:01;11.85;;;11.25;;
34737;SDS011;39910;47.154;27.614;2024-03-07T08:47:33;10.70;;;10.20;;
34737;SDS011;39910;47.154;27.614;2024-03-07T08:49:59;12.65;;;11.98;;
34737;SDS011;39910;47.154;27.614;2024-03-07T08:52:25;12.48;;;11.80;;
34737;SDS011;39910;47.154;27.614;2024-03-07T08:54:50;12.02;;;11.43;;
34737;SDS011;39910;47.154;27.614;2024-03-07T08:57:16;12.23;;;11.63;;
34737;SDS011;39910;47.154;27.614;2024-03-07T08:59:45;12.65;;;11.95;;
34737;SDS011;39910;47.154;27.614;2024-03-07T09:02:10;13.13;;;12.43;;
34737;SDS011;39910;47.154;27.614;2024-03-07T09:04:38;13.05;;;12.35;;
34737;SDS011;39910;47.154;27.614;2024-03-07T09:07:04;12.55;;;11.88;;
34737;SDS011;39910;47.154;27.614;2024-03-07T09:09:31;13.10;;;12.40;;
34737;SDS011;39910;47.154;27.614;2024-03-07T09:11:57;11.70;;;11.10;;
34737;SDS011;39910;47.154;27.614;2024-03-07T09:14:22;12.02;;;11.43;;
34737;SDS011;39910;47.154;27.614;2024-03-07T09:16:48;12.77;;;12.07;;
34737;SDS011;39910;47.154;27.614;2024-03-07T09:19:14;11.82;;;11.23;;
34737;SDS011;39910;47.154;27.614;2024-03-07T09:21:39;12.30;;;11.70;;
34737;SDS011;39910;47.154;27.614;2024-03-07T09:24:06;13.98;;;13.25;;
34737;SDS011;39910;47.154;27.614;2024-03-07T09:26:32;12.27;;;11.68;;
34737;SDS011;39910;47.154;27.614;2024-03-07T09:28:58;12.05;;;11.45;;
34737;SDS011;39910;47.154;27.614;2024-03-07T09:31:26;13.05;;;12.35;;
34737;SDS011;39910;47.154;27.614;2024-03-07T09:33:51;12.65;;;12.05;;
34737;SDS011;39910;47.154;27.614;2024-03-07T09:36:17;12.88;;;12.20;;
34737;SDS011;39910;47.154;27.614;2024-03-07T09:38:44;13.02;;;12.32;;
34737;SDS011;39910;47.154;27.614;2024-03-07T09:41:09;12.63;;;12.02;;
34737;SDS011;39910;47.154;27.614;2024-03-07T09:43:34;13.05;;;12.38;;
34737;SDS011;39910;47.154;27.614;2024-03-07T09:46:01;12.45;;;11.85;;
34737;SDS011;39910;47.154;27.614;2024-03-07T09:48:27;12.88;;;12.27;;
34737;SDS011;39910;47.154;27.614;2024-03-07T09:50:53;12.32;;;11.73;;
34737;SDS011;39910;47.154;27.614;2024-03-07T09:53:20;12.35;;;11.75;;
34737;SDS011;39910;47.154;27.614;2024-03-07T09:55:46;13.23;;;12.52;;
34737;SDS011;39910;47.154;27.614;2024-03-07T09:58:11;12.00;;;11.40;;
34737;SDS011;39910;47.154;27.614;2024-03-07T10:00:38;12.52;;;11.93;;
34737;SDS011;39910;47.154;27.614;2024-03-07T10:03:07;13.00;;;12.32;;
34737;SDS011;39910;47.154;27.614;2024-03-07T10:05:33;13.43;;;12.73;;
34737;SDS011;39910;47.154;27.614;2024-03-07T10:07:59;13.15;;;12.45;;
34737;SDS011;39910;47.154;27.614;2024-03-07T10:10:25;12.32;;;11.73;;
34737;SDS011;39910;47.154;27.614;2024-03-07T10:12:51;12.68;;;12.07;;
34737;SDS011;39910;47.154;27.614;2024-03-07T10:15:18;13.05;;;12.35;;
34737;SDS011;39910;47.154;27.614;2024-03-07T10:17:44;13.07;;;12.38;;
34737;SDS011;39910;47.154;27.614;2024-03-07T10:20:12;13.60;;;12.90;;
34737;SDS011;39910;47.154;27.614;2024-03-07T10:22:41;13.32;;;12.63;;
34737;SDS011;39910;47.154;27.614;2024-03-07T10:25:07;12.43;;;11.82;;
34737;SDS011;39910;47.154;27.614;2024-03-07T10:27:35;13.02;;;12.35;;
34737;SDS011;39910;47.154;27.614;2024-03-07T10:30:01;11.95;;;11.35;;
34737;SDS011;39910;47.154;27.614;2024-03-07T10:32:26;11.80;;;11.20;;
34737;SDS011;39910;47.154;27.614;2024-03-07T10:34:52;12.13;;;11.52;;
34737;SDS011;39910;47.154;27.614;2024-03-07T10:37:18;11.98;;;11.38;;
34737;SDS011;39910;47.154;27.614;2024-03-07T10:39:50;11.70;;;11.10;;
34737;SDS011;39910;47.154;27.614;2024-03-07T10:42:19;12.02;;;11.43;;
34737;SDS011;39910;47.154;27.614;2024-03-07T10:44:47;12.05;;;11.45;;
34737;SDS011;39910;47.154;27.614;2024-03-07T10:47:15;12.52;;;11.93;;
34737;SDS011;39910;47.154;27.614;2024-03-07T10:52:22;12.52;;;11.93;;
34737;SDS011;39910;47.154;27.614;2024-03-07T11:00:11;14.70;;;13.90;;
34737;SDS011;39910;47.154;27.614;2024-03-07T11:02:57;11.20;;;10.70;;
34737;SDS011;39910;47.154;27.614;2024-03-07T11:05:26;12.88;;;12.18;;
34737;SDS011;39910;47.154;27.614;2024-03-07T11:07:56;13.40;;;12.70;;
34737;SDS011;39910;47.154;27.614;2024-03-07T11:10:22;11.43;;;10.93;;
34737;SDS011;39910;47.154;27.614;2024-03-07T11:12:48;11.43;;;10.93;;
34737;SDS011;39910;47.154;27.614;2024-03-07T11:15:16;11.98;;;11.38;;
34737;SDS011;39910;47.154;27.614;2024-03-07T11:17:45;12.07;;;11.48;;
34737;SDS011;39910;47.154;27.614;2024-03-07T11:22:46;11.68;;;11.07;;
34737;SDS011;39910;47.154;27.614;2024-03-07T11:25:12;12.85;;;12.18;;
34737;SDS011;39910;47.154;27.614;2024-03-07T11:27:37;11.93;;;11.32;;
34737;SDS011;39910;47.154;27.614;2024-03-07T11:30:07;12.10;;;11.50;;
34737;SDS011;39910;47.154;27.614;2024-03-07T11:32:39;11.95;;;11.35;;
34737;SDS011;39910;47.154;27.614;2024-03-07T11:35:13;11.38;;;10.88;;
34737;SDS011;39910;47.154;27.614;2024-03-07T11:37:47;11.75;;;11.15;;
34737;SDS011;39910;47.154;27.614;2024-03-07T11:40:13;11.27;;;10.77;;
34737;SDS011;39910;47.154;27.614;2024-03-07T11:42:50;12.13;;;11.52;;
34737;SDS011;39910;47.154;27.614;2024-03-07T11:45:16;12.93;;;12.23;;
34737;SDS011;39910;47.154;27.614;2024-03-07T11:47:51;11.75;;;11.15;;
34737;SDS011;39910;47.154;27.614;2024-03-07T11:50:32;12.65;;;12.05;;
34737;SDS011;39910;47.154;27.614;2024-03-07T11:53:00;11.18;;;10.68;;
34737;SDS011;39910;47.154;27.614;2024-03-07T11:55:26;11.20;;;10.70;;
34737;SDS011;39910;47.154;27.614;2024-03-07T11:57:53;12.02;;;11.43;;
34737;SDS011;39910;47.154;27.614;2024-03-07T12:00:19;11.82;;;11.23;;
34737;SDS011;39910;47.154;27.614;2024-03-07T12:02:45;12.15;;;11.55;;
34737;SDS011;39910;47.154;27.614;2024-03-07T12:05:10;13.57;;;12.88;;
34737;SDS011;39910;47.154;27.614;2024-03-07T12:07:41;11.80;;;11.20;;
34737;SDS011;39910;47.154;27.614;2024-03-07T12:10:06;12.10;;;11.50;;
34737;SDS011;39910;47.154;27.614;2024-03-07T12:12:32;12.63;;;12.02;;
34737;SDS011;39910;47.154;27.614;2024-03-07T12:14:58;12.13;;;11.52;;
34737;SDS011;39910;47.154;27.614;2024-03-07T12:17:24;12.57;;;11.98;;
34737;SDS011;39910;47.154;27.614;2024-03-07T12:19:50;12.90;;;12.20;;
34737;SDS011;39910;47.154;27.614;2024-03-07T12:22:20;11.70;;;11.10;;
34737;SDS011;39910;47.154;27.614;2024-03-07T12:24:59;12.43;;;11.82;;
34737;SDS011;39910;47.154;27.614;2024-03-07T12:27:27;12.43;;;11.82;;
34737;SDS011;39910;47.154;27.614;2024-03-07T12:29:53;12.90;;;12.20;;
34737;SDS011;39910;47.154;27.614;2024-03-07T12:32:19;11.63;;;11.02;;
34737;SDS011;39910;47.154;27.614;2024-03-07T12:34:44;11.98;;;11.38;;
34737;SDS011;39910;47.154;27.614;2024-03-07T12:37:12;11.02;;;10.52;;
34737;SDS011;39910;47.154;27.614;2024-03-07T12:39:44;12.23;;;11.63;;
34737;SDS011;39910;47.154;27.614;2024-03-07T12:42:14;12.73;;;12.02;;
34737;SDS011;39910;47.154;27.614;2024-03-07T12:44:40;13.20;;;12.50;;
34737;SDS011;39910;47.154;27.614;2024-03-07T12:47:09;12.77;;;12.10;;
34737;SDS011;39910;47.154;27.614;2024-03-07T12:49:35;12.23;;;11.63;;
34737;SDS011;39910;47.154;27.614;2024-03-07T12:52:00;12.30;;;11.70;;
34737;SDS011;39910;47.154;27.614;2024-03-07T12:54:26;13.52;;;12.82;;
34737;SDS011;39910;47.154;27.614;2024-03-07T12:56:52;12.15;;;11.55;;
34737;SDS011;39910;47.154;27.614;2024-03-07T12:59:17;11.80;;;11.20;;
34737;SDS011;39910;47.154;27.614;2024-03-07T13:01:44;12.32;;;11.73;;
34737;SDS011;39910;47.154;27.614;2024-03-07T13:04:12;12.00;;;11.40;;
34737;SDS011;39910;47.154;27.614;2024-03-07T13:06:38;12.13;;;11.52;;
34737;SDS011;39910;47.154;27.614;2024-03-07T13:09:09;12.15;;;11.55;;
34737;SDS011;39910;47.154;27.614;2024-03-07T13:11:37;12.70;;;12.05;;
34737;SDS011;39910;47.154;27.614;2024-03-07T13:14:06;12.65;;;12.02;;
34737;SDS011;39910;47.154;27.614;2024-03-07T13:16:32;12.50;;;11.90;;
34737;SDS011;39910;47.154;27.614;2024-03-07T13:18:58;11.65;;;11.05;;
34737;SDS011;39910;47.154;27.614;2024-03-07T13:21:23;12.05;;;11.45;;
34737;SDS011;39910;47.154;27.614;2024-03-07T13:23:50;12.43;;;11.82;;
34737;SDS011;39910;47.154;27.614;2024-03-07T13:26:17;11.65;;;11.05;;
34737;SDS011;39910;47.154;27.614;2024-03-07T13:28:49;12.70;;;12.05;;
34737;SDS011;39910;47.154;27.614;2024-03-07T13:31:15;12.13;;;11.52;;
34737;SDS011;39910;47.154;27.614;2024-03-07T13:33:43;12.25;;;11.65;;
34737;SDS011;39910;47.154;27.614;2024-03-07T13:36:09;12.38;;;11.77;;
34737;SDS011;39910;47.154;27.614;2024-03-07T13:38:35;12.85;;;12.15;;
34737;SDS011;39910;47.154;27.614;2024-03-07T13:41:01;12.43;;;11.82;;
34737;SDS011;39910;47.154;27.614;2024-03-07T13:43:30;13.07;;;12.38;;
34737;SDS011;39910;47.154;27.614;2024-03-07T13:45:58;12.23;;;11.63;;
34737;SDS011;39910;47.154;27.614;2024-03-07T13:48:24;12.02;;;11.43;;
34737;SDS011;39910;47.154;27.614;2024-03-07T13:50:49;12.27;;;11.68;;
34737;SDS011;39910;47.154;27.614;2024-03-07T13:53:16;12.00;;;11.40;;
34737;SDS011;39910;47.154;27.614;2024-03-07T13:58:16;11.45;;;10.85;;
34737;SDS011;39910;47.154;27.614;2024-03-07T14:00:53;12.35;;;11.75;;
34737;SDS011;39910;47.154;27.614;2024-03-07T14:05:56;12.68;;;12.02;;
34737;SDS011;39910;47.154;27.614;2024-03-07T14:09:13;13.00;;;12.30;;
34737;SDS011;39910;47.154;27.614;2024-03-07T14:16:27;13.48;;;12.77;;
34737;SDS011;39910;47.154;27.614;2024-03-07T14:32:18;12.07;;;11.48;;
34737;SDS011;39910;47.154;27.614;2024-03-07T14:37:23;12.20;;;11.60;;
34737;SDS011;39910;47.154;27.614;2024-03-07T14:39:50;12.40;;;11.80;;
34737;SDS011;39910;47.154;27.614;2024-03-07T14:42:16;12.63;;;12.02;;
34737;SDS011;39910;47.154;27.614;2024-03-07T14:44:42;12.15;;;11.55;;
34737;SDS011;39910;47.154;27.614;2024-03-07T14:47:11;12.93;;;12.23;;